createdAt,value
2022-08-19T00:00:55.160Z,9.668075
2022-08-19T00:01:54.994Z,9.668054
2022-08-19T00:02:55.213Z,9.668098
2022-08-19T00:03:54.978Z,9.668114
2022-08-19T00:04:55.040Z,9.668103
2022-08-19T00:05:55.007Z,9.668144
2022-08-19T00:06:54.998Z,9.668109
2022-08-19T00:07:54.924Z,9.668006
2022-08-19T00:08:54.991Z,9.668029
2022-08-19T00:09:54.951Z,9.668050
2022-08-19T00:10:55.621Z,9.668046
2022-08-19T00:11:54.947Z,9.668017
2022-08-19T00:12:54.932Z,9.668080
2022-08-19T00:13:56.365Z,9.668057
2022-08-19T00:14:54.894Z,9.668095
2022-08-19T00:15:54.947Z,9.668058
2022-08-19T00:16:54.921Z,9.668040
2022-08-19T00:17:54.863Z,9.668089
2022-08-19T00:18:54.871Z,9.668074
2022-08-19T00:19:54.857Z,9.668066
2022-08-19T00:20:54.832Z,9.668098
2022-08-19T00:21:54.867Z,9.668124
2022-08-19T00:22:54.947Z,9.668137
2022-08-19T00:23:54.832Z,9.668161
2022-08-19T00:24:54.820Z,9.668196
2022-08-19T00:25:54.836Z,9.668191
2022-08-19T00:26:54.836Z,9.668083
2022-08-19T00:27:54.816Z,9.668070
2022-08-19T00:28:54.830Z,9.668052
2022-08-19T00:29:54.761Z,9.668060
2022-08-19T00:30:54.807Z,9.668066
2022-08-19T00:31:54.773Z,9.668062
2022-08-19T00:32:54.813Z,9.668105
2022-08-19T00:33:54.806Z,9.668064
2022-08-19T00:34:54.827Z,9.668046
2022-08-19T00:35:55.997Z,9.668039
2022-08-19T00:36:54.766Z,9.668045
2022-08-19T00:37:54.732Z,9.668063
2022-08-19T00:38:54.722Z,9.668028
2022-08-19T00:39:54.723Z,9.668031
2022-08-19T00:40:54.691Z,9.668038
2022-08-19T00:41:54.716Z,9.668049
2022-08-19T00:42:54.674Z,9.668037
2022-08-19T00:43:54.689Z,9.668068
2022-08-19T00:44:54.648Z,9.668020
2022-08-19T00:45:54.664Z,9.668026
2022-08-19T00:46:55.405Z,9.668066
2022-08-19T00:47:54.632Z,9.668032
2022-08-19T00:48:54.644Z,9.668060
2022-08-19T00:49:54.648Z,9.668066
2022-08-19T00:50:54.627Z,9.668035
2022-08-19T00:51:54.625Z,9.667992
2022-08-19T00:52:54.779Z,9.667975
2022-08-19T00:53:54.673Z,9.667986
2022-08-19T00:54:54.620Z,9.668021
2022-08-19T00:55:54.588Z,9.668012
2022-08-19T00:56:54.588Z,9.668008
2022-08-19T00:57:54.555Z,9.668042
2022-08-19T00:58:54.560Z,9.668053
2022-08-19T01:00:01.654Z,9.668029
2022-08-19T01:00:55.531Z,9.668037
2022-08-19T01:01:54.587Z,9.668065
2022-08-19T01:02:54.707Z,9.668042
2022-08-19T01:03:57.564Z,9.668028
2022-08-19T01:04:54.527Z,9.668053
2022-08-19T01:05:54.567Z,9.668046
2022-08-19T01:06:54.469Z,9.668016
2022-08-19T01:07:54.476Z,9.667983
2022-08-19T01:08:54.510Z,9.668022
2022-08-19T01:09:54.458Z,9.668061
2022-08-19T01:10:54.522Z,9.668071
2022-08-19T01:11:54.542Z,9.668000
2022-08-19T01:12:54.577Z,9.667985
2022-08-19T01:13:54.436Z,9.668026
2022-08-19T01:14:54.446Z,9.668010
2022-08-19T01:15:54.487Z,9.668040
2022-08-19T01:16:54.441Z,9.668061
2022-08-19T01:17:54.474Z,9.668058
2022-08-19T01:18:54.400Z,9.668034
2022-08-19T01:19:54.528Z,9.668031
2022-08-19T01:20:54.383Z,9.667971
2022-08-19T01:21:54.434Z,9.667994
2022-08-19T01:22:54.591Z,9.668025
2022-08-19T01:23:54.353Z,9.667980
2022-08-19T01:24:54.341Z,9.667974
2022-08-19T01:25:55.396Z,9.667967
2022-08-19T01:26:54.558Z,9.668007
2022-08-19T01:27:54.399Z,9.668003
2022-08-19T01:28:54.419Z,9.668008
2022-08-19T01:29:54.525Z,9.668077
2022-08-19T01:30:54.317Z,9.668035
2022-08-19T01:31:54.346Z,9.668076
2022-08-19T01:32:54.611Z,9.667954
2022-08-19T01:33:54.265Z,9.667944
2022-08-19T01:34:54.318Z,9.667996
2022-08-19T01:35:54.292Z,9.667957
2022-08-19T01:36:54.259Z,9.668044
2022-08-19T01:37:54.244Z,9.667991
2022-08-19T01:38:54.252Z,9.667933
2022-08-19T01:39:54.377Z,9.668032
2022-08-19T01:40:54.203Z,9.668054
2022-08-19T01:41:54.194Z,9.668013
2022-08-19T01:42:54.388Z,9.667991
2022-08-19T01:44:13.953Z,9.667993
2022-08-19T01:44:55.199Z,9.667959
2022-08-19T02:05:07.610Z,9.667965
2022-08-19T02:06:07.686Z,9.667982
2022-08-19T02:07:07.644Z,9.667926
2022-08-19T02:08:07.645Z,9.667844
2022-08-19T02:09:07.649Z,9.667958
2022-08-19T02:10:09.405Z,9.667963
2022-08-19T02:11:07.563Z,9.667924
2022-08-19T02:12:07.553Z,9.667912
2022-08-19T02:13:07.560Z,9.667930
2022-08-19T02:14:07.597Z,9.667951
2022-08-19T02:15:39.456Z,9.667959
2022-08-19T02:16:07.514Z,9.667937
2022-08-19T02:17:07.552Z,9.667948
2022-08-19T02:18:07.514Z,9.667973
2022-08-19T02:19:07.479Z,9.667982
2022-08-19T02:20:07.468Z,9.667944
2022-08-19T02:21:07.499Z,9.667944
2022-08-19T02:22:07.457Z,9.667998
2022-08-19T02:23:13.480Z,9.667954
2022-08-19T02:24:08.469Z,9.667922
2022-08-19T02:25:07.446Z,9.668032
2022-08-19T02:26:07.746Z,9.667956
2022-08-19T02:27:07.497Z,9.667902
2022-08-19T02:28:07.421Z,9.667983
2022-08-19T02:29:07.431Z,9.667944
2022-08-19T02:30:07.400Z,9.667948
2022-08-19T02:31:07.389Z,9.667926
2022-08-19T02:32:07.431Z,9.667969
2022-08-19T02:33:07.427Z,9.667982
2022-08-19T02:34:07.376Z,9.667896
2022-08-19T02:35:12.483Z,9.667929
2022-08-19T02:36:08.368Z,9.667871
2022-08-19T02:37:07.357Z,9.667909
2022-08-19T02:38:07.368Z,9.667946
2022-08-19T02:39:07.338Z,9.668002
2022-08-19T02:40:12.370Z,9.667992
2022-08-19T02:41:08.351Z,9.667966
2022-08-19T02:42:07.322Z,9.667997
2022-08-19T02:43:07.324Z,9.667948
2022-08-19T02:44:26.362Z,9.667994
2022-08-19T02:45:08.286Z,9.667964
2022-08-19T02:46:07.281Z,9.668005
2022-08-19T02:47:07.295Z,9.667971
2022-08-19T02:48:14.878Z,9.667985
2022-08-19T02:49:08.299Z,9.668006
2022-08-19T02:50:07.268Z,9.668008
2022-08-19T02:51:07.245Z,9.668050
2022-08-19T02:52:07.248Z,9.668038
2022-08-19T02:53:07.254Z,9.668012
2022-08-19T02:54:07.259Z,9.668029
2022-08-19T02:55:07.248Z,9.667991
2022-08-19T02:56:07.216Z,9.667986
2022-08-19T02:57:07.192Z,9.667979
2022-08-19T02:58:08.228Z,9.667987
2022-08-19T02:59:07.195Z,9.667994
2022-08-19T03:00:07.248Z,9.667946
2022-08-19T03:01:07.208Z,9.667986
2022-08-19T03:02:07.160Z,9.667994
2022-08-19T03:03:07.155Z,9.667984
2022-08-19T03:04:07.173Z,9.667987
2022-08-19T03:05:07.211Z,9.667960
2022-08-19T03:06:07.137Z,9.668014
2022-08-19T03:07:10.607Z,9.667970
2022-08-19T03:08:07.135Z,9.667991
2022-08-19T03:09:07.226Z,9.667985
2022-08-19T03:10:07.141Z,9.667974
2022-08-19T03:11:07.117Z,9.667919
2022-08-19T03:12:07.107Z,9.667959
2022-08-19T03:13:07.089Z,9.668052
2022-08-19T03:14:07.092Z,9.668005
2022-08-19T03:15:07.067Z,9.667951
2022-08-19T03:16:07.088Z,9.667979
2022-08-19T03:17:07.062Z,9.667974
2022-08-19T03:18:07.039Z,9.667996
2022-08-19T03:19:07.238Z,9.667966
2022-08-19T03:20:07.046Z,9.667960
2022-08-19T03:21:07.022Z,9.667923
2022-08-19T03:22:08.028Z,9.667973
2022-08-19T03:23:07.004Z,9.668001
2022-08-19T03:24:07.036Z,9.667976
2022-08-19T03:25:07.071Z,9.667978
2022-08-19T03:26:15.912Z,9.667976
2022-08-19T03:27:07.968Z,9.668009
2022-08-19T03:28:06.976Z,9.667972
2022-08-19T03:29:06.979Z,9.667968
2022-08-19T03:30:06.956Z,9.667932
2022-08-19T03:31:41.611Z,9.667922
2022-08-19T03:32:07.968Z,9.667973
2022-08-19T03:33:07.941Z,9.667936
2022-08-19T03:34:08.083Z,9.667996
2022-08-19T03:35:06.912Z,9.667997
2022-08-19T03:36:06.933Z,9.668059
2022-08-19T03:37:06.919Z,9.668006
2022-08-19T03:38:06.925Z,9.668029
2022-08-19T03:39:06.905Z,9.668074
2022-08-19T03:40:06.922Z,9.668072
2022-08-19T03:41:07.633Z,9.668019
2022-08-19T03:42:32.680Z,9.667995
2022-08-19T03:43:07.872Z,9.667995
2022-08-19T03:44:06.883Z,9.667987
2022-08-19T03:45:07.883Z,9.667981
2022-08-19T03:46:06.837Z,9.668003
2022-08-19T04:05:11.482Z,9.668093
2022-08-19T04:06:11.504Z,9.668106
2022-08-19T04:07:11.506Z,9.668106
2022-08-19T04:08:13.929Z,9.668069
2022-08-19T04:09:13.068Z,9.668038
2022-08-19T04:10:11.434Z,9.668048
2022-08-19T04:11:11.436Z,9.668060
2022-08-19T04:12:11.653Z,9.668035
2022-08-19T04:13:11.423Z,9.668030
2022-08-19T04:14:11.521Z,9.668044
2022-08-19T04:15:11.382Z,9.668007
2022-08-19T04:16:11.407Z,9.668016
2022-08-19T04:17:11.918Z,9.668013
2022-08-19T04:18:11.367Z,9.668047
2022-08-19T04:19:11.372Z,9.668020
2022-08-19T04:20:11.397Z,9.668019
2022-08-19T04:21:11.359Z,9.668010
2022-08-19T04:22:11.340Z,9.668018
2022-08-19T04:23:11.349Z,9.668030
2022-08-19T04:24:11.323Z,9.668015
2022-08-19T04:25:11.350Z,9.668069
2022-08-19T04:26:11.329Z,9.668033
2022-08-19T04:27:11.316Z,9.668050
2022-08-19T04:28:11.322Z,9.668012
2022-08-19T04:29:12.668Z,9.668040
2022-08-19T04:30:12.300Z,9.668061
2022-08-19T04:31:11.301Z,9.668051
2022-08-19T04:32:11.258Z,9.668024
2022-08-19T04:33:11.280Z,9.668041
2022-08-19T04:34:11.239Z,9.668035
2022-08-19T04:35:17.015Z,9.668040
2022-08-19T04:36:12.349Z,9.668071
2022-08-19T04:37:11.220Z,9.668040
2022-08-19T04:38:11.213Z,9.668030
2022-08-19T04:39:11.233Z,9.668033
2022-08-19T04:40:11.303Z,9.668019
2022-08-19T04:41:11.219Z,9.668053
2022-08-19T04:42:11.226Z,9.668117
2022-08-19T04:43:12.068Z,9.668067
2022-08-19T04:44:11.197Z,9.668051
2022-08-19T04:45:12.365Z,9.668036
2022-08-19T04:46:11.215Z,9.668089
2022-08-19T04:47:12.181Z,9.668037
2022-08-19T04:48:26.508Z,9.668063
2022-08-19T04:49:12.950Z,9.668083
2022-08-19T04:50:11.137Z,9.668132
2022-08-19T04:51:11.149Z,9.668125
2022-08-19T04:52:11.117Z,9.668052
2022-08-19T04:53:11.134Z,9.668037
2022-08-19T04:54:11.101Z,9.668110
2022-08-19T04:55:11.115Z,9.668074
2022-08-19T04:56:11.115Z,9.668018
2022-08-19T04:57:12.063Z,9.668008
2022-08-19T04:58:11.091Z,9.667974
2022-08-19T04:59:11.124Z,9.667984
2022-08-19T05:00:11.058Z,9.667941
2022-08-19T05:01:11.137Z,9.668053
2022-08-19T05:02:11.065Z,9.667997
2022-08-19T05:03:11.047Z,9.668012
2022-08-19T05:04:11.070Z,9.668015
2022-08-19T05:05:11.033Z,9.667998
2022-08-19T05:06:12.011Z,9.668011
2022-08-19T05:07:11.043Z,9.667984
2022-08-19T05:08:10.986Z,9.667951
2022-08-19T05:09:11.017Z,9.667961
2022-08-19T05:10:10.977Z,9.667990
2022-08-19T05:11:11.006Z,9.667994
2022-08-19T05:12:11.613Z,9.667996
2022-08-19T05:13:10.952Z,9.668012
2022-08-19T05:14:10.983Z,9.667994
2022-08-19T05:15:10.950Z,9.667990
2022-08-19T05:16:10.934Z,9.668021
2022-08-19T05:17:27.226Z,9.667989
2022-08-19T05:18:12.920Z,9.668015
2022-08-19T05:19:12.082Z,9.667975
2022-08-19T05:20:10.920Z,9.667980
2022-08-19T05:21:10.918Z,9.667986
2022-08-19T05:22:10.891Z,9.668019
2022-08-19T05:23:13.396Z,9.667986
2022-08-19T05:24:11.872Z,9.667980
2022-08-19T05:25:13.363Z,9.668015
2022-08-19T05:26:11.858Z,9.667992
2022-08-19T05:27:10.853Z,9.667938
2022-08-19T05:28:10.860Z,9.667922
2022-08-19T05:29:10.866Z,9.667916
2022-08-19T05:30:10.931Z,9.667936
2022-08-19T05:31:10.822Z,9.667886
2022-08-19T05:32:10.853Z,9.667925
2022-08-19T05:33:10.867Z,9.667918
2022-08-19T05:34:18.341Z,9.667922
2022-08-19T05:35:11.814Z,9.667933
2022-08-19T05:36:10.834Z,9.667942
2022-08-19T05:37:10.774Z,9.667999
2022-08-19T05:38:10.783Z,9.667951
2022-08-19T05:39:10.767Z,9.667909
2022-08-19T05:40:10.871Z,9.667918
2022-08-19T05:41:10.796Z,9.667957
2022-08-19T05:42:10.753Z,9.667967
2022-08-19T05:43:10.764Z,9.667933
2022-08-19T05:44:10.749Z,9.667936
2022-08-19T05:45:10.728Z,9.667957
2022-08-19T05:46:10.741Z,9.667941
2022-08-19T05:47:10.713Z,9.667950
2022-08-19T05:48:11.633Z,9.667982
2022-08-19T05:49:10.724Z,9.667994
2022-08-19T05:50:10.706Z,9.667971
2022-08-19T05:51:10.728Z,9.667990
2022-08-19T05:52:10.702Z,9.667972
2022-08-19T05:53:10.702Z,9.667943
2022-08-19T05:54:10.665Z,9.667965
2022-08-19T05:55:10.652Z,9.667900
2022-08-19T05:56:10.716Z,9.667936
2022-08-19T05:57:13.294Z,9.667959
2022-08-19T05:58:10.712Z,9.667910
2022-08-19T05:59:10.633Z,9.667953
2022-08-19T06:00:10.639Z,9.667925
2022-08-19T06:01:10.647Z,9.667949
2022-08-19T06:02:10.664Z,9.667963
2022-08-19T06:03:12.556Z,9.667949
2022-08-19T06:04:10.593Z,9.667886
2022-08-19T06:05:11.595Z,9.667883
2022-08-19T06:06:10.579Z,9.667914
2022-08-19T06:07:12.144Z,9.667933
2022-08-19T06:08:11.571Z,9.667903
2022-08-19T06:09:10.643Z,9.667871
2022-08-19T06:10:10.569Z,9.667901
2022-08-19T06:11:10.541Z,9.667886
2022-08-19T06:12:10.637Z,9.667904
2022-08-19T06:13:10.544Z,9.667904
2022-08-19T06:14:16.441Z,9.667896
2022-08-19T06:15:11.520Z,9.667908
2022-08-19T06:16:10.526Z,9.667910
2022-08-19T06:17:10.517Z,9.667977
2022-08-19T06:18:10.487Z,9.667918
2022-08-19T06:19:10.476Z,9.667936
2022-08-19T06:20:10.459Z,9.667895
2022-08-19T06:21:10.457Z,9.667904
2022-08-19T06:22:10.497Z,9.667890
2022-08-19T06:23:10.449Z,9.667896
2022-08-19T06:24:11.425Z,9.667877
2022-08-19T06:25:10.460Z,9.667867
2022-08-19T06:26:10.420Z,9.667907
2022-08-19T06:27:10.422Z,9.667904
2022-08-19T06:28:17.773Z,9.667945
2022-08-19T06:29:12.384Z,9.667940
2022-08-19T06:30:11.381Z,9.667953
2022-08-19T06:31:10.374Z,9.667947
2022-08-19T06:32:10.359Z,9.667967
2022-08-19T06:33:10.375Z,9.667954
2022-08-19T06:34:10.354Z,9.667970
2022-08-19T06:35:10.371Z,9.667975
2022-08-19T06:36:11.092Z,9.667991
2022-08-19T06:37:10.330Z,9.667984
2022-08-19T06:38:10.393Z,9.667981
2022-08-19T06:39:10.312Z,9.667975
2022-08-19T06:40:10.386Z,9.668003
2022-08-19T06:41:10.298Z,9.667988
2022-08-19T06:42:11.097Z,9.668000
2022-08-19T06:43:11.132Z,9.667956
2022-08-19T06:44:13.256Z,9.667955
2022-08-19T06:45:10.294Z,9.667937
2022-08-19T06:46:10.269Z,9.667940
2022-08-19T06:47:14.902Z,9.667951
2022-08-19T06:48:11.664Z,9.667955
2022-08-19T06:49:10.237Z,9.667950
2022-08-19T06:50:10.266Z,9.667970
2022-08-19T06:51:10.217Z,9.667992
2022-08-19T06:52:10.218Z,9.667936
2022-08-19T06:53:10.199Z,9.667963
2022-08-19T06:54:19.258Z,9.667933
2022-08-19T06:55:11.195Z,9.667955
2022-08-19T06:56:10.208Z,9.667946
2022-08-19T06:57:10.173Z,9.667938
2022-08-19T06:58:10.167Z,9.667971
2022-08-19T06:59:10.161Z,9.667953
2022-08-19T07:00:12.836Z,9.667975
2022-08-19T07:01:11.157Z,9.667958
2022-08-19T07:02:10.159Z,9.667957
2022-08-19T07:03:12.926Z,9.667934
2022-08-19T07:04:12.003Z,9.667942
2022-08-19T07:05:10.201Z,9.667997
2022-08-19T07:06:21.320Z,9.667924
2022-08-19T07:07:19.722Z,9.667941
2022-08-19T07:08:11.139Z,9.667960
2022-08-19T07:09:10.083Z,9.667944
2022-08-19T07:10:10.090Z,9.667991
2022-08-19T07:11:10.847Z,9.667990
2022-08-19T07:12:10.083Z,9.667905
2022-08-19T07:13:10.079Z,9.667914
2022-08-19T07:14:18.880Z,9.667959
2022-08-19T07:15:11.044Z,9.667940
2022-08-19T07:16:10.039Z,9.667948
2022-08-19T07:17:10.024Z,9.667965
2022-08-19T07:18:11.761Z,9.667896
2022-08-19T07:19:15.647Z,9.667916
2022-08-19T07:20:11.002Z,9.667925
2022-08-19T07:21:10.023Z,9.667949
2022-08-19T07:22:09.998Z,9.667892
2022-08-19T07:23:09.984Z,9.667974
2022-08-19T07:24:10.976Z,9.667981
2022-08-19T07:25:10.549Z,9.667962
2022-08-19T07:26:09.989Z,9.667944
2022-08-19T07:27:13.822Z,9.667930
2022-08-19T07:28:22.399Z,9.667942
2022-08-19T07:29:10.938Z,9.667950
2022-08-19T07:30:11.609Z,9.667941
2022-08-19T07:31:09.922Z,9.667919
2022-08-19T07:32:11.573Z,9.667894
2022-08-19T07:33:09.944Z,9.667892
2022-08-19T07:34:09.883Z,9.667912
2022-08-19T07:35:09.892Z,9.667912
2022-08-19T07:36:09.882Z,9.667917
2022-08-19T07:37:09.865Z,9.667888
2022-08-19T07:38:09.894Z,9.667871
2022-08-19T07:39:09.859Z,9.667842
2022-08-19T07:40:09.884Z,9.667912
2022-08-19T07:41:09.849Z,9.668003
2022-08-19T07:42:09.855Z,9.667942
2022-08-19T07:43:13.956Z,9.667962
2022-08-19T07:44:10.845Z,9.667948
2022-08-19T07:45:09.819Z,9.667987
2022-08-19T07:47:48.214Z,9.668006
2022-08-19T07:48:10.791Z,9.667981
2022-08-19T07:49:09.783Z,9.667968
2022-08-19T07:50:09.850Z,9.667952
2022-08-19T07:51:09.814Z,9.667964
2022-08-19T07:52:09.759Z,9.667968
2022-08-19T07:53:09.753Z,9.667973
2022-08-19T07:54:09.741Z,9.667967
2022-08-19T07:55:39.821Z,9.667989
2022-08-19T07:56:10.717Z,9.667939
2022-08-19T07:57:09.721Z,9.667939
2022-08-19T07:58:09.736Z,9.667925
2022-08-19T07:59:09.707Z,9.667952
2022-08-19T08:00:09.713Z,9.667933
2022-08-19T08:01:12.066Z,9.667972
2022-08-19T08:02:09.733Z,9.667964
2022-08-19T08:03:09.696Z,9.667990
2022-08-19T08:04:09.666Z,9.667997
2022-08-19T08:05:09.669Z,9.667975
2022-08-19T08:06:09.659Z,9.667945
2022-08-19T08:07:11.631Z,9.667945
2022-08-19T08:08:09.630Z,9.667970
2022-08-19T08:09:09.641Z,9.667999
2022-08-19T08:10:20.519Z,9.668004
2022-08-19T08:11:11.664Z,9.668012
2022-08-19T08:12:32.825Z,9.668006
2022-08-19T08:13:11.803Z,9.667954
2022-08-19T08:14:09.587Z,9.667938
2022-08-19T08:15:39.955Z,9.667944
2022-08-19T08:16:13.866Z,9.668021
2022-08-19T08:17:10.783Z,9.668044
2022-08-19T08:18:09.615Z,9.668066
2022-08-19T08:19:14.706Z,9.668049
2022-08-19T08:20:11.159Z,9.668032
2022-08-19T08:21:09.594Z,9.667993
2022-08-19T08:22:09.529Z,9.667960
2022-08-19T08:23:10.550Z,9.668005
2022-08-19T08:24:09.548Z,9.668023
2022-08-19T08:25:09.586Z,9.668019
2022-08-19T08:26:09.502Z,9.668020
2022-08-19T08:27:11.152Z,9.667961
2022-08-19T08:28:09.521Z,9.668006
2022-08-19T08:29:12.299Z,9.667948
2022-08-19T08:30:09.531Z,9.667913
2022-08-19T08:31:09.913Z,9.667999
2022-08-19T08:32:14.051Z,9.668001
2022-08-19T08:33:10.560Z,9.668001
2022-08-19T08:34:09.481Z,9.667976
2022-08-19T08:35:09.447Z,9.667953
2022-08-19T08:36:09.519Z,9.668059
2022-08-19T08:37:09.440Z,9.668033
2022-08-19T08:38:09.435Z,9.667957
2022-08-19T08:39:09.510Z,9.668030
2022-08-19T08:40:13.045Z,9.667977
2022-08-19T08:41:10.411Z,9.668002
2022-08-19T08:42:10.434Z,9.667995
2022-08-19T08:43:10.844Z,9.668019
2022-08-19T08:44:09.418Z,9.667978
2022-08-19T08:45:10.403Z,9.667989
2022-08-19T08:46:09.422Z,9.667963
2022-08-19T08:47:09.389Z,9.667952
2022-08-19T08:48:22.282Z,9.667988
2022-08-19T08:49:10.366Z,9.668001
2022-08-19T08:50:09.357Z,9.667964
2022-08-19T08:51:09.370Z,9.667942
2022-08-19T08:52:09.355Z,9.667950
2022-08-19T08:53:09.328Z,9.667887
2022-08-19T08:54:09.843Z,9.667901
2022-08-19T08:55:10.166Z,9.667878
2022-08-19T08:56:09.321Z,9.667917
2022-08-19T08:57:09.334Z,9.667900
2022-08-19T08:58:09.315Z,9.667905
2022-08-19T08:59:09.303Z,9.667845
2022-08-19T09:00:15.453Z,9.667894
2022-08-19T09:01:10.301Z,9.667832
2022-08-19T09:02:09.282Z,9.667829
2022-08-19T09:03:09.279Z,9.667869
2022-08-19T09:04:09.300Z,9.667870
2022-08-19T09:05:09.243Z,9.667869
2022-08-19T09:06:12.012Z,9.667856
2022-08-19T09:07:18.217Z,9.667882
2022-08-19T09:08:12.074Z,9.667829
2022-08-19T09:09:12.039Z,9.667862
2022-08-19T09:10:09.186Z,9.667891
2022-08-19T09:11:09.180Z,9.667907
2022-08-19T09:12:09.391Z,9.667808
2022-08-19T09:13:09.639Z,9.667854
2022-08-19T09:14:19.188Z,9.667848
2022-08-19T09:15:10.168Z,9.667791
2022-08-19T09:16:09.190Z,9.667742
2022-08-19T09:17:09.161Z,9.667746
2022-08-19T09:18:09.159Z,9.667870
2022-08-19T09:19:10.195Z,9.667905
2022-08-19T09:20:10.047Z,9.667912
2022-08-19T09:21:10.048Z,9.667942
2022-08-19T09:22:09.115Z,9.667853
2022-08-19T09:23:09.097Z,9.667921
2022-08-19T09:24:09.098Z,9.667942
2022-08-19T09:25:09.140Z,9.667938
2022-08-19T09:26:09.113Z,9.667952
2022-08-19T09:27:18.782Z,9.667966
2022-08-19T09:28:15.218Z,9.667920
2022-08-19T09:29:10.034Z,9.667916
2022-08-19T09:30:09.073Z,9.667923
2022-08-19T09:31:09.065Z,9.667963
2022-08-19T09:32:26.470Z,9.667930
2022-08-19T09:33:10.035Z,9.667909
2022-08-19T09:34:09.025Z,9.667947
2022-08-19T09:35:10.150Z,9.667940
2022-08-19T09:36:09.030Z,9.667934
2022-08-19T09:37:41.027Z,9.667953
2022-08-19T09:38:08.968Z,9.667921
2022-08-19T09:39:40.939Z,9.667909
2022-08-19T09:40:12.104Z,9.667951
2022-08-19T09:41:09.087Z,9.667977
2022-08-19T09:42:50.412Z,9.667945
2022-08-19T09:43:13.349Z,9.667954
2022-08-19T09:44:08.951Z,9.667954
2022-08-19T09:45:10.392Z,9.667959
2022-08-19T09:46:08.930Z,9.667977
2022-08-19T09:47:40.846Z,9.668017
2022-08-19T09:48:09.469Z,9.667973
2022-08-19T09:49:08.897Z,9.667970
2022-08-19T09:50:08.917Z,9.667959
2022-08-19T09:51:08.898Z,9.667968
2022-08-19T09:52:08.876Z,9.667975
2022-08-19T09:53:08.876Z,9.667951
2022-08-19T09:54:11.468Z,9.667956
2022-08-19T09:55:08.916Z,9.667951
2022-08-19T09:56:09.340Z,9.667940
2022-08-19T09:57:08.860Z,9.667977
2022-08-19T09:58:08.857Z,9.667953
2022-08-19T09:59:08.954Z,9.667970
2022-08-19T10:00:08.828Z,9.668030
2022-08-19T10:01:08.814Z,9.667996
2022-08-19T10:02:10.617Z,9.668004
2022-08-19T10:03:08.927Z,9.667975
2022-08-19T10:04:20.093Z,9.667999
2022-08-19T10:05:10.807Z,9.667927
2022-08-19T10:06:15.203Z,9.667992
2022-08-19T10:07:09.782Z,9.667949
2022-08-19T10:08:13.755Z,9.667956
2022-08-19T10:09:09.804Z,9.667965
2022-08-19T10:10:08.801Z,9.667949
2022-08-19T10:11:28.307Z,9.667963
2022-08-19T10:12:11.337Z,9.667980
2022-08-19T10:13:09.320Z,9.667998
2022-08-19T10:14:08.760Z,9.668006
2022-08-19T10:15:08.834Z,9.667997
2022-08-19T10:16:08.760Z,9.667973
2022-08-19T10:17:20.009Z,9.668001
2022-08-19T10:18:09.723Z,9.667994
2022-08-19T10:19:08.709Z,9.667987
2022-08-19T10:20:08.712Z,9.667991
2022-08-19T10:21:08.817Z,9.668018
2022-08-19T10:22:10.099Z,9.667986
2022-08-19T10:23:08.692Z,9.668006
2022-08-19T10:24:09.476Z,9.668030
2022-08-19T10:25:08.687Z,9.668007
2022-08-19T10:26:09.325Z,9.668009
2022-08-19T10:27:08.902Z,9.668024
2022-08-19T10:28:10.598Z,9.668016
2022-08-19T10:29:09.205Z,9.667994
2022-08-19T10:30:10.099Z,9.667976
2022-08-19T10:31:08.607Z,9.668013
2022-08-19T10:32:09.728Z,9.668012
2022-08-19T10:33:11.291Z,9.667983
2022-08-19T10:34:10.084Z,9.667929
2022-08-19T10:35:09.573Z,9.667933
2022-08-19T10:36:08.572Z,9.667938
2022-08-19T10:37:10.826Z,9.667900
2022-08-19T10:38:09.566Z,9.667915
2022-08-19T10:39:08.662Z,9.667913
2022-08-19T10:40:09.232Z,9.667935
2022-08-19T10:41:08.560Z,9.667881
2022-08-19T10:42:08.516Z,9.667937
2022-08-19T10:43:09.309Z,9.667969
2022-08-19T10:44:08.541Z,9.668022
2022-08-19T10:45:08.500Z,9.668019
2022-08-19T10:46:13.691Z,9.667891
2022-08-19T10:47:24.372Z,9.667984
2022-08-19T10:48:09.521Z,9.667986
2022-08-19T10:49:09.491Z,9.668008
2022-08-19T10:50:09.305Z,9.667982
2022-08-19T10:51:08.509Z,9.668055
2022-08-19T10:52:10.197Z,9.668068
2022-08-19T10:53:09.808Z,9.668052
2022-08-19T10:54:12.555Z,9.667966
2022-08-19T10:55:08.905Z,9.668038
2022-08-19T10:56:08.472Z,9.668003
2022-08-19T10:57:08.475Z,9.667957
2022-08-19T10:58:08.758Z,9.667996
2022-08-19T10:59:08.454Z,9.668017
2022-08-19T11:00:08.426Z,9.667973
2022-08-19T11:01:08.469Z,9.667993
2022-08-19T11:02:08.422Z,9.667973
2022-08-19T11:03:09.539Z,9.668003
2022-08-19T11:04:08.405Z,9.668008
2022-08-19T11:05:12.630Z,9.668033
2022-08-19T11:06:09.375Z,9.668028
2022-08-19T11:07:08.371Z,9.668036
2022-08-19T11:08:23.150Z,9.667995
2022-08-19T11:09:09.377Z,9.668035
2022-08-19T11:10:11.497Z,9.668042
2022-08-19T11:11:09.343Z,9.668049
2022-08-19T11:12:08.357Z,9.668036
2022-08-19T11:13:08.338Z,9.668013
2022-08-19T11:14:08.345Z,9.668020
2022-08-19T11:15:09.315Z,9.667993
2022-08-19T11:16:08.342Z,9.668015
2022-08-19T11:17:08.367Z,9.668011
2022-08-19T11:18:08.841Z,9.667992
2022-08-19T11:19:08.297Z,9.667989
2022-08-19T11:20:08.300Z,9.668003
2022-08-19T11:21:08.276Z,9.668018
2022-08-19T11:22:08.422Z,9.668013
2022-08-19T11:23:08.254Z,9.668000
2022-08-19T11:24:08.235Z,9.668025
2022-08-19T11:25:08.262Z,9.668025
2022-08-19T11:26:08.242Z,9.668045
2022-08-19T11:27:08.239Z,9.668038
2022-08-19T11:28:08.224Z,9.668017
2022-08-19T11:29:08.237Z,9.667968
2022-08-19T11:30:08.226Z,9.667892
2022-08-19T11:31:08.217Z,9.668016
2022-08-19T11:32:08.183Z,9.667969
2022-08-19T11:33:08.265Z,9.667921
2022-08-19T11:34:08.167Z,9.667952
2022-08-19T11:35:08.226Z,9.667993
2022-08-19T11:36:08.171Z,9.668001
2022-08-19T11:37:08.143Z,9.667989
2022-08-19T11:38:09.865Z,9.668003
2022-08-19T11:39:09.159Z,9.667994
2022-08-19T11:40:08.172Z,9.668008
2022-08-19T11:41:08.133Z,9.668009
2022-08-19T11:42:08.118Z,9.667969
2022-08-19T11:43:08.153Z,9.667939
2022-08-19T11:44:08.123Z,9.667961
2022-08-19T11:45:08.887Z,9.667973
2022-08-19T11:46:08.133Z,9.667941
2022-08-19T11:47:08.903Z,9.668043
2022-08-19T11:48:08.079Z,9.668021
2022-08-19T11:49:13.218Z,9.668048
2022-08-19T11:50:10.072Z,9.668025
2022-08-19T11:51:08.063Z,9.668007
2022-08-19T11:52:08.057Z,9.668003
2022-08-19T11:53:08.039Z,9.667942
2022-08-19T11:54:08.051Z,9.667930
2022-08-19T11:55:08.132Z,9.667958
2022-08-19T11:56:08.018Z,9.667998
2022-08-19T11:57:08.019Z,9.668072
2022-08-19T11:58:07.993Z,9.668018
2022-08-19T11:59:14.102Z,9.668046
2022-08-19T12:00:09.042Z,9.668038
2022-08-19T12:01:07.999Z,9.668018
2022-08-19T12:02:08.001Z,9.668037
2022-08-19T12:03:07.976Z,9.668011
2022-08-19T12:04:08.032Z,9.668029
2022-08-19T12:05:12.023Z,9.667961
2022-08-19T12:06:08.959Z,9.667944
2022-08-19T12:07:07.928Z,9.667934
2022-08-19T12:08:07.916Z,9.667919
2022-08-19T12:09:08.001Z,9.667990
2022-08-19T12:10:07.934Z,9.667949
2022-08-19T12:11:07.908Z,9.668008
2022-08-19T12:12:07.893Z,9.667973
2022-08-19T12:13:07.887Z,9.668040
2022-08-19T12:14:07.908Z,9.668000
2022-08-19T12:15:07.883Z,9.668006
2022-08-19T12:16:07.875Z,9.667976
2022-08-19T12:17:07.899Z,9.667968
2022-08-19T12:18:07.866Z,9.667952
2022-08-19T12:19:07.852Z,9.667996
2022-08-19T12:20:07.846Z,9.668002
2022-08-19T12:21:07.841Z,9.667974
2022-08-19T12:22:07.814Z,9.668064
2022-08-19T12:23:07.813Z,9.667985